Etusivu
METAR-TAF:

METAR-TAF

Lentoasemat :

Kimberley, Etelä-Afrikka

Leveyspiiri: 28-48S, Pituuspiiri: 024-46E, korkeus merenpinnasta: 1198 m

Tämänhetkinen sää

Tämä raportti tehtiin 57 minuuttia sitten, kello 03.00 UTC
Tuuli 11 kn pohjoisesta/koillisesta
Lämpötila
Ilmanpaine 1018 hPa
Näkyvyys 10 km tai enemmän
Hajanaisia pilviä 800 ft:n korkeudessa

METAR: FAKM 230300Z 02011KT 9999 SCT008 ///// Q1018

Aika: 05:57 (03:57 UTC)

Sääennuste

Tämä raportti tehtiin 57 minuuttia sitten, kello 03.00 UTC
Ennuste voimassa 23. päivästä klo 04 UTC - 23. päivään klo 15 UTC
Tuuli 15 kn pohjoisesta/koillisesta
Näkyvyys 10 km tai enemmän
Hajanaisia pilviä 800 ft:n korkeudessa
Tulossa
23. päivästä klo 06 UTC - 23. päivään klo 08 UTC
Hajanaisia pilviä 2000 ft:n korkeudessa

TAF: FAKM 230300Z 2304/2315 02015KT 9999 SCT008 TX20/2312Z TN10/2305Z BECMG 2306/2308 SCT020

Säähavainnot ja -ennusteet yli 4000 lentoasemalta (METAR- ja TAF-raportit).

Käytössä olevat sääasemat on merkitty karttaan keltaisilla ja punaisilla pisteillä.

Aseta hiiri pisteen päälle nähdäksesi sääaseman nimen.

Klikkaa sitten nähdäksesi säähavainnot ja -ennusteet.

Kartan vaihtaminen: klikkaa mustalla rastilla varustettuja vihreitä pisteitä, niin voit zoomata sisään; viivalla varustettua vihreää pistettä, niin voit zoomata ulos tai vihreitä nuolia, niin pääset viereisille kartoille.


METAR-TAF: